Time;durP1;ratioP1;P1;durP2;ratioP2;P2;SDS_P1;SDS_P2;PMS_P1;PMS_P2;Temp;Humidity;BMP_temperature;BMP_pressure;BME280_temperature;BME280_humidity;BME280_pressure;Samples;Min_cycle;Max_cycle;Signal;HPM_P1;HPM_P2
2023/10/22 00:01:58;;;;;;;5.20;4.70;;;9.60;99.90;;;10.30;100.00;96987.16;10420039;22;20260;-66
2023/10/22 00:07:01;;;;;;;4.85;4.35;;;9.50;99.90;;;10.27;100.00;96982.81;10384563;28;20229;-64
2023/10/22 00:12:05;;;;;;;5.00;4.60;;;9.60;99.90;;;10.27;100.00;96984.47;10393779;28;20229;-65
2023/10/22 00:17:10;;;;;;;5.97;4.72;;;9.50;99.90;;;10.26;100.00;96986.13;10424456;28;20225;-65
2023/10/22 00:22:14;;;;;;;4.63;4.22;;;9.60;99.90;;;10.18;100.00;96990.00;10417926;28;20237;-66
2023/10/22 00:27:17;;;;;;;5.03;4.18;;;9.60;99.90;;;10.26;100.00;96991.22;10424761;28;20233;-66
2023/10/22 00:32:21;;;;;;;4.55;4.20;;;9.60;99.90;;;10.27;100.00;96999.78;10414983;28;20739;-66
2023/10/22 00:37:25;;;;;;;4.57;3.45;;;9.60;99.90;;;10.35;100.00;97012.09;10418964;28;20233;-65
2023/10/22 00:42:28;;;;;;;3.97;3.28;;;9.50;99.90;;;10.23;100.00;97010.66;10417485;28;20243;-65
2023/10/22 00:47:34;;;;;;;3.75;3.45;;;9.40;99.90;;;10.13;100.00;97009.38;10418434;28;20232;-66
2023/10/22 00:52:37;;;;;;;5.55;4.00;;;9.30;99.90;;;10.02;100.00;97020.78;10415660;28;20255;-66
2023/10/22 00:57:41;;;;;;;4.18;3.83;;;9.30;99.90;;;9.93;100.00;97017.00;10421812;28;20237;-65
2023/10/22 01:02:46;;;;;;;3.47;3.10;;;9.20;99.90;;;9.99;100.00;97023.22;10417651;28;20255;-67
2023/10/22 01:07:49;;;;;;;3.50;3.20;;;9.20;99.90;;;10.07;100.00;97026.97;10419317;28;20278;-67
2023/10/22 01:12:52;;;;;;;3.47;3.17;;;9.30;99.90;;;9.99;100.00;97024.06;10420480;28;20236;-67
2023/10/22 01:17:57;;;;;;;3.80;3.20;;;9.10;99.90;;;9.86;100.00;97021.75;10422575;28;20256;-67
2023/10/22 01:23:01;;;;;;;4.10;3.20;;;9.10;99.90;;;9.75;100.00;97023.81;10424325;28;20582;-67
2023/10/22 01:28:06;;;;;;;3.88;3.58;;;9.10;99.90;;;9.78;100.00;97036.69;10434094;28;20225;-68
2023/10/22 01:33:09;;;;;;;4.32;2.92;;;9.10;99.90;;;9.77;100.00;97029.88;10426149;28;20235;-65
2023/10/22 01:38:12;;;;;;;3.65;3.10;;;9.00;99.90;;;9.58;100.00;97027.25;10431333;28;20700;-66
2023/10/22 01:43:17;;;;;;;2.92;2.72;;;8.90;99.90;;;9.47;100.00;97035.28;10428753;28;20228;-66
2023/10/22 01:48:20;;;;;;;3.28;3.00;;;8.80;99.90;;;9.43;100.00;97023.16;10431952;28;20728;-66
2023/10/22 01:53:23;;;;;;;3.80;3.60;;;8.70;99.90;;;9.31;100.00;97027.69;10426597;28;20703;-66
2023/10/22 01:58:28;;;;;;;3.03;2.85;;;8.60;99.90;;;9.28;100.00;97027.53;10422134;28;20229;-67
2023/10/22 02:03:33;;;;;;;3.60;3.33;;;8.60;99.90;;;9.26;100.00;97029.13;10423032;28;20751;-65
2023/10/22 02:08:37;;;;;;;2.78;2.60;;;8.50;99.90;;;9.18;100.00;97035.53;10424147;28;20251;-66
2023/10/22 02:13:42;;;;;;;3.60;3.30;;;8.50;99.90;;;9.12;100.00;97047.97;10428024;28;20351;-66
2023/10/22 02:18:45;;;;;;;3.55;3.25;;;8.40;99.90;;;9.12;100.00;97058.19;10428347;28;20247;-66
2023/10/22 02:23:48;;;;;;;4.45;2.95;;;8.40;99.90;;;8.96;100.00;97059.97;10432272;28;20229;-66
2023/10/22 02:28:53;;;;;;;2.40;2.30;;;8.30;99.90;;;8.94;100.00;97061.56;10427522;28;20221;-66
2023/10/22 02:34:03;;;;;;;2.60;2.40;;;8.20;99.90;;;8.85;100.00;97065.34;10426163;28;20231;-66
2023/10/22 02:39:08;;;;;;;3.28;2.97;;;8.20;99.90;;;8.89;100.00;97070.66;10426103;28;20233;-66
2023/10/22 02:44:12;;;;;;;3.47;3.05;;;8.30;99.90;;;8.96;100.00;97082.91;10431958;28;20351;-67
2023/10/22 02:49:16;;;;;;;3.10;2.90;;;8.30;99.90;;;8.86;100.00;97074.72;10429372;28;20675;-66
2023/10/22 02:54:19;;;;;;;2.67;2.57;;;8.20;99.90;;;8.79;100.00;97079.50;10428302;28;21346;-66
2023/10/22 02:59:24;;;;;;;2.92;2.70;;;8.10;99.90;;;8.73;100.00;97080.88;10432885;28;20687;-66
2023/10/22 03:04:27;;;;;;;3.13;2.97;;;7.90;99.90;;;8.61;100.00;97100.59;10427525;28;20601;-66
2023/10/22 03:09:30;;;;;;;2.80;2.60;;;7.90;99.90;;;8.63;100.00;97099.00;10430849;28;20223;-66
2023/10/22 03:14:35;;;;;;;2.80;2.60;;;7.90;99.90;;;8.42;100.00;97104.75;10434616;28;20595;-67
2023/10/22 03:19:38;;;;;;;3.33;3.10;;;7.80;99.90;;;8.34;100.00;97111.91;10435624;28;20640;-66
2023/10/22 03:24:44;;;;;;;3.33;3.03;;;7.70;99.90;;;8.25;100.00;97111.44;10439412;28;20228;-67
2023/10/22 03:29:48;;;;;;;3.40;3.10;;;7.60;99.90;;;8.43;100.00;97106.47;10432429;28;20308;-66
2023/10/22 03:34:51;;;;;;;2.97;2.70;;;7.80;99.90;;;8.25;100.00;97113.13;10433256;28;20228;-67
2023/10/22 03:39:54;;;;;;;3.37;3.13;;;7.50;99.90;;;8.20;100.00;97110.31;10433913;28;20616;-66
2023/10/22 03:44:59;;;;;;;4.03;3.50;;;7.60;99.90;;;8.23;100.00;97104.50;10435197;28;20221;-66
2023/10/22 03:50:03;;;;;;;3.93;3.63;;;7.60;99.90;;;8.20;100.00;97109.44;10434082;28;20795;-68
2023/10/22 03:55:07;;;;;;;3.23;2.93;;;7.50;99.90;;;8.11;100.00;97123.41;10434233;28;20260;-66
2023/10/22 04:00:14;;;;;;;3.60;3.30;;;7.40;99.90;;;7.98;100.00;97118.44;10427838;28;20319;-66
2023/10/22 04:05:18;;;;;;;3.30;2.90;;;7.30;99.90;;;8.07;100.00;97116.41;10436844;28;20749;-66
2023/10/22 04:10:21;;;;;;;4.00;3.70;;;7.40;99.90;;;8.02;100.00;97122.06;10437742;28;20236;-65
2023/10/22 04:15:27;;;;;;;4.37;4.03;;;7.30;99.90;;;7.92;100.00;97130.81;10431899;28;20225;-65
2023/10/22 04:20:33;;;;;;;4.00;3.70;;;7.20;99.90;;;7.92;100.00;97141.00;10432878;28;20715;-64
2023/10/22 04:25:39;;;;;;;5.17;3.93;;;7.30;99.90;;;7.85;100.00;97141.47;10433858;28;20334;-64
2023/10/22 04:30:44;;;;;;;3.90;3.00;;;7.20;99.90;;;7.84;100.00;97142.25;10429532;28;20244;-66
2023/10/22 04:35:47;;;;;;;3.20;3.00;;;7.20;99.90;;;7.84;100.00;97155.88;10430384;28;20229;-65
2023/10/22 04:40:51;;;;;;;4.97;3.37;;;7.20;99.90;;;7.82;100.00;97161.66;10427994;28;20229;-66
2023/10/22 04:45:55;;;;;;;3.00;2.80;;;7.20;99.90;;;7.77;100.00;97168.16;10433727;28;20609;-64
2023/10/22 04:51:00;;;;;;;2.90;2.70;;;7.10;99.90;;;7.71;100.00;97178.84;10414268;28;20236;-66
2023/10/22 04:56:05;;;;;;;3.17;2.73;;;7.10;99.90;;;7.74;100.00;97175.59;10419501;28;20842;-64
2023/10/22 05:01:12;;;;;;;2.57;2.37;;;7.10;99.90;;;7.60;100.00;97178.22;10414781;28;20239;-66
2023/10/22 05:06:15;;;;;;;2.77;2.57;;;6.90;99.90;;;7.58;100.00;97184.91;10417092;28;20232;-66
2023/10/22 05:11:18;;;;;;;2.77;2.57;;;6.90;99.90;;;7.53;100.00;97191.41;10413543;28;20232;-66
2023/10/22 05:16:23;;;;;;;3.17;2.97;;;6.90;99.90;;;7.61;100.00;97205.44;10426253;28;20236;-66
2023/10/22 05:21:26;;;;;;;4.27;3.33;;;6.90;99.90;;;7.58;100.00;97205.25;10424754;28;20323;-67
2023/10/22 05:26:29;;;;;;;2.97;2.77;;;6.90;99.90;;;7.53;100.00;97210.88;10423653;28;20217;-67
2023/10/22 05:31:34;;;;;;;3.67;3.37;;;6.80;99.90;;;7.43;100.00;97212.84;10427431;28;20229;-66
2023/10/22 05:36:37;;;;;;;3.60;3.23;;;6.80;99.90;;;7.29;100.00;97210.28;10421136;28;20232;-67
2023/10/22 05:41:40;;;;;;;3.20;2.93;;;6.70;99.90;;;7.37;100.00;97219.25;10427370;28;20224;-65
2023/10/22 05:46:45;;;;;;;3.03;2.83;;;6.80;99.90;;;7.38;100.00;97210.81;10431685;28;21070;-67
2023/10/22 05:51:49;;;;;;;2.80;2.70;;;6.70;99.90;;;7.38;100.00;97223.53;10431584;28;20319;-67
2023/10/22 05:56:53;;;;;;;4.40;4.10;;;6.70;99.90;;;7.48;100.00;97228.38;10437338;28;20233;-67
2023/10/22 06:01:57;;;;;;;6.47;5.53;;;6.70;99.90;;;7.43;100.00;97242.47;10437047;28;20283;-65
2023/10/22 06:07:00;;;;;;;6.80;6.27;;;6.70;99.90;;;7.41;100.00;97249.13;10437236;28;20711;-67
2023/10/22 06:12:04;;;;;;;6.97;6.57;;;6.60;99.90;;;7.32;100.00;97261.31;10437792;28;20787;-68
2023/10/22 06:17:09;;;;;;;6.60;6.13;;;6.60;99.90;;;7.31;100.00;97262.97;10437176;28;20225;-65
2023/10/22 06:22:12;;;;;;;4.03;3.73;;;6.60;99.90;;;7.26;100.00;97266.91;10437056;28;20244;-66
2023/10/22 06:27:15;;;;;;;3.33;3.03;;;6.60;99.90;;;7.50;100.00;97269.13;10436117;28;20225;-67
2023/10/22 06:32:20;;;;;;;3.10;2.90;;;6.90;99.90;;;7.98;100.00;97283.84;10434574;28;20778;-67
2023/10/22 06:37:23;;;;;;;4.77;4.23;;;7.30;99.90;;;8.48;100.00;97297.72;10433260;28;20236;-66
2023/10/22 06:42:27;;;;;;;4.20;3.80;;;7.70;99.90;;;8.80;100.00;97296.94;10430452;28;20602;-66
2023/10/22 06:47:36;;;;;;;4.33;3.93;;;8.00;99.90;;;9.29;100.00;97306.34;10434192;28;20228;-66
2023/10/22 06:52:41;;;;;;;4.27;3.87;;;8.50;99.90;;;9.60;100.00;97309.72;10431317;28;20646;-67
2023/10/22 06:57:46;;;;;;;4.68;4.28;;;8.80;99.90;;;9.90;100.00;97318.06;10445472;28;20229;-66
2023/10/22 07:02:50;;;;;;;4.50;4.15;;;9.00;99.90;;;10.25;100.00;97326.63;10440769;28;20235;-67
2023/10/22 07:07:53;;;;;;;6.30;5.80;;;9.40;99.90;;;10.69;97.63;97335.59;10450829;28;20282;-67
2023/10/22 07:12:57;;;;;;;5.90;5.40;;;9.80;99.90;;;10.84;94.59;97327.78;10445969;28;20319;-67
2023/10/22 07:18:01;;;;;;;5.13;4.82;;;9.90;99.90;;;11.28;93.65;97324.72;10446614;28;20332;-67
2023/10/22 07:23:06;;;;;;;4.70;4.28;;;10.40;99.90;;;11.76;92.88;97329.41;10447369;28;20281;-66
2023/10/22 07:28:11;;;;;;;3.75;3.40;;;10.90;99.90;;;12.03;92.41;97334.00;10433767;28;20344;-65
2023/10/22 07:33:16;;;;;;;4.35;3.78;;;11.30;99.90;;;12.11;91.03;97338.63;10440452;28;20236;-67
2023/10/22 07:38:21;;;;;;;3.40;3.00;;;11.30;99.90;;;12.29;92.45;97343.66;10445944;28;20221;-68
2023/10/22 07:43:25;;;;;;;4.13;2.97;;;11.70;99.90;;;12.83;89.89;97356.13;10444094;28;20237;-68
2023/10/22 07:48:29;;;;;;;6.60;6.05;;;12.20;99.90;;;13.33;88.30;97356.34;10447441;28;20731;-67
2023/10/22 07:53:33;;;;;;;9.02;8.30;;;12.60;99.90;;;13.62;87.11;97353.22;10443266;28;20266;-67
2023/10/22 07:58:38;;;;;;;5.05;4.55;;;13.00;99.90;;;13.94;83.50;97363.78;10442229;28;20942;-67
2023/10/22 08:03:42;;;;;;;4.03;3.63;;;13.30;99.90;;;14.06;84.16;97378.75;10437795;28;20221;-68
2023/10/22 08:08:45;;;;;;;3.40;3.13;;;13.30;99.90;;;14.48;81.41;97373.31;10432175;28;20232;-69
2023/10/22 08:13:49;;;;;;;2.83;2.63;;;13.80;99.90;;;14.64;80.30;97381.66;10445555;28;20709;-63
2023/10/22 08:18:53;;;;;;;2.67;2.47;;;14.10;99.90;;;15.01;77.49;97381.97;10439000;28;20221;-65
2023/10/22 08:23:56;;;;;;;3.88;2.60;;;14.50;99.90;;;15.41;75.67;97383.22;10438486;28;20229;-66
2023/10/22 08:28:59;;;;;;;3.42;2.28;;;14.90;99.90;;;15.85;73.17;97387.16;10428891;28;20264;-65
2023/10/22 08:34:04;;;;;;;3.30;2.40;;;15.40;99.90;;;16.24;69.70;97388.22;10419348;28;20608;-67
2023/10/22 08:39:08;;;;;;;2.92;2.13;;;15.80;99.90;;;16.46;69.84;97398.28;10425374;28;20236;-66
2023/10/22 08:44:15;;;;;;;2.65;1.58;;;16.00;99.90;;;16.75;64.75;97405.91;10422832;28;20235;-66
2023/10/22 08:49:21;;;;;;;2.40;1.95;;;16.00;99.90;;;16.89;63.52;97397.69;10427335;28;20225;-66
2023/10/22 08:54:24;;;;;;;4.18;1.83;;;16.20;99.90;;;17.08;62.39;97405.88;10423774;28;20229;-66
2023/10/22 08:59:29;;;;;;;2.40;1.20;;;16.50;99.90;;;17.06;59.46;97415.31;10419228;28;20279;-66
2023/10/22 09:04:34;;;;;;;2.90;1.70;;;16.50;99.90;;;17.04;60.21;97404.94;10423775;28;20233;-66
2023/10/22 09:09:39;;;;;;;2.90;1.58;;;16.50;99.90;;;17.06;59.26;97408.44;10424890;28;20921;-66
2023/10/22 09:14:44;;;;;;;2.95;1.77;;;16.60;99.90;;;17.01;56.47;97412.59;10425580;28;20228;-66
2023/10/22 09:19:49;;;;;;;2.03;1.77;;;16.70;99.90;;;17.04;57.69;97407.50;10426713;28;20253;-66
2023/10/22 09:24:56;;;;;;;2.30;1.50;;;16.50;99.90;;;17.05;56.88;97400.63;10425755;28;20233;-66
2023/10/22 09:30:00;;;;;;;3.25;1.60;;;16.60;99.90;;;16.97;55.30;97408.22;10428282;28;20723;-66
2023/10/22 09:35:14;;;;;;;3.17;1.60;;;16.60;99.90;;;17.04;55.71;97411.81;10427057;28;20244;-67
2023/10/22 09:40:21;;;;;;;3.97;1.60;;;16.60;99.90;;;17.15;56.67;97406.91;10428131;28;20248;-66
2023/10/22 09:45:26;;;;;;;4.70;1.73;;;16.70;99.90;;;17.20;55.64;97403.59;10427341;28;20312;-66
2023/10/22 09:50:32;;;;;;;3.92;1.50;;;16.80;99.90;;;17.28;56.46;97414.09;10424141;28;20766;-65
2023/10/22 09:55:39;;;;;;;3.40;1.80;;;16.70;99.90;;;17.20;55.18;97410.47;10431717;28;20233;-65
2023/10/22 10:00:43;;;;;;;2.95;1.73;;;16.80;99.90;;;17.37;55.35;97414.34;10425771;28;20235;-66
2023/10/22 10:05:56;;;;;;;3.53;1.70;;;16.90;99.90;;;17.57;55.49;97419.97;10417182;28;20984;-66
2023/10/22 10:11:00;;;;;;;4.60;1.70;;;17.10;99.90;;;17.58;56.28;97413.06;10418170;28;20708;-66
2023/10/22 10:16:05;;;;;;;3.65;1.67;;;17.10;99.90;;;17.68;55.69;97415.00;10422907;28;20235;-67
2023/10/22 10:21:43;;;;;;;2.50;1.95;;;17.10;99.90;;;17.55;54.89;97409.56;10428922;28;20232;-66
2023/10/22 10:26:50;;;;;;;3.90;2.00;;;17.20;99.90;;;17.66;54.34;97406.38;10432502;28;20319;-66
2023/10/22 10:31:56;;;;;;;4.22;2.00;;;17.10;99.90;;;17.59;53.63;97412.22;10430456;28;20229;-66
2023/10/22 10:37:12;;;;;;;3.50;1.80;;;17.00;99.70;;;17.64;54.18;97408.91;10429800;28;21860;-66
2023/10/22 10:42:48;;;;;;;4.50;1.55;;;17.30;99.60;;;17.86;53.98;97419.75;10430447;28;20613;-66
2023/10/22 10:47:51;;;;;;;4.00;1.77;;;17.40;99.90;;;18.02;52.33;97422.66;10432242;28;20810;-66
2023/10/22 10:53:02;;;;;;;4.57;1.75;;;17.50;98.80;;;18.17;51.25;97424.72;10427609;28;20279;-66
2023/10/22 10:58:06;;;;;;;2.22;1.50;;;17.60;97.90;;;18.26;51.68;97416.25;10427765;28;20232;-67
2023/10/22 11:03:10;;;;;;;3.78;1.73;;;17.80;98.30;;;18.17;50.83;97413.47;10430971;28;20750;-66
2023/10/22 11:08:18;;;;;;;3.30;1.05;;;17.70;97.20;;;18.34;50.11;97414.69;10429814;28;20232;-67
2023/10/22 11:13:27;;;;;;;3.55;1.50;;;17.80;96.90;;;18.50;50.50;97412.38;10428803;28;20236;-66
2023/10/22 11:18:30;;;;;;;3.38;1.65;;;18.00;97.10;;;18.76;48.71;97412.91;10430284;28;20229;-66
2023/10/22 11:23:35;;;;;;;3.33;1.60;;;18.30;95.50;;;18.75;49.94;97417.19;10427452;28;20221;-66
2023/10/22 11:28:38;;;;;;;1.88;1.50;;;18.20;96.60;;;18.61;49.63;97413.47;10427366;28;20225;-66
2023/10/22 11:33:41;;;;;;;2.30;1.40;;;17.90;96.60;;;18.62;50.71;97410.03;10425881;28;20263;-66
2023/10/22 11:38:46;;;;;;;2.72;1.20;;;17.90;96.90;;;18.50;48.13;97409.81;10427769;28;20310;-66
2023/10/22 11:43:50;;;;;;;3.08;1.30;;;17.80;95.60;;;18.46;48.92;97395.94;10428937;28;20343;-67
2023/10/22 11:48:53;;;;;;;3.97;1.42;;;17.90;95.60;;;18.45;49.35;97397.63;10425632;28;20228;-66
2023/10/22 11:54:00;;;;;;;2.33;1.30;;;17.90;95.80;;;18.23;50.22;97391.19;10427352;28;21321;-66
2023/10/22 11:59:04;;;;;;;3.58;1.40;;;17.60;96.60;;;18.22;49.07;97397.19;10422849;28;20228;-66
2023/10/22 12:04:08;;;;;;;4.20;1.52;;;17.40;96.20;;;17.98;49.69;97405.34;10424339;28;20234;-68
2023/10/22 12:09:12;;;;;;;2.00;1.45;;;17.20;96.20;;;17.85;49.35;97413.69;10425237;28;20229;-66
2023/10/22 12:14:15;;;;;;;1.88;1.45;;;17.10;96.20;;;17.86;48.72;97424.91;10424208;28;20654;-67
2023/10/22 12:19:18;;;;;;;3.08;1.35;;;17.40;95.30;;;17.97;49.72;97424.31;10422166;28;20233;-66
2023/10/22 12:24:23;;;;;;;1.58;1.45;;;17.40;95.90;;;17.98;50.64;97415.69;10421704;28;20263;-66
2023/10/22 12:29:29;;;;;;;4.65;1.50;;;17.30;96.70;;;17.94;50.04;97429.41;10424302;28;20677;-66
2023/10/22 12:34:32;;;;;;;2.33;1.27;;;17.40;96.10;;;17.76;51.16;97426.38;10424661;28;20225;-66
2023/10/22 12:39:37;;;;;;;2.78;1.50;;;17.20;96.80;;;17.76;51.37;97423.78;10420928;28;20846;-66
2023/10/22 12:44:43;;;;;;;2.88;1.40;;;17.10;97.00;;;17.66;52.03;97416.69;10424840;28;20666;-66
2023/10/22 12:49:47;;;;;;;2.58;1.45;;;17.10;97.00;;;17.60;51.89;97411.38;10422702;28;20228;-66
2023/10/22 12:54:52;;;;;;;5.07;1.60;;;17.10;97.20;;;17.68;50.88;97405.53;10421153;28;20256;-67
2023/10/22 12:59:55;;;;;;;2.00;1.25;;;17.10;97.00;;;17.73;50.59;97414.25;10419233;28;20326;-67
2023/10/22 13:04:59;;;;;;;2.53;1.25;;;17.10;96.50;;;17.59;50.69;97413.09;10421467;28;20233;-67
2023/10/22 13:10:05;;;;;;;2.95;1.70;;;17.00;96.60;;;17.82;51.16;97416.19;10420109;28;20286;-67
2023/10/22 13:15:10;;;;;;;2.00;1.40;;;17.20;96.80;;;17.86;51.50;97415.44;10418283;28;20240;-67
2023/10/22 13:20:14;;;;;;;2.25;1.55;;;17.20;97.10;;;17.91;49.28;97421.59;10423574;28;20240;-67
2023/10/22 13:25:19;;;;;;;3.60;1.50;;;17.40;95.50;;;17.84;50.71;97427.47;10423590;28;20236;-67
2023/10/22 13:30:22;;;;;;;4.03;1.60;;;17.10;96.40;;;17.84;49.16;97422.28;10427131;28;20258;-67
2023/10/22 13:35:25;;;;;;;3.22;1.40;;;17.10;95.70;;;17.71;50.94;97409.91;10422086;28;20235;-67
2023/10/22 13:40:30;;;;;;;2.40;1.73;;;17.00;96.60;;;17.75;50.79;97419.47;10424664;28;20256;-67
2023/10/22 13:45:37;;;;;;;2.72;1.55;;;16.90;96.80;;;17.65;50.25;97409.75;10421535;28;20233;-67
2023/10/22 13:50:41;;;;;;;2.33;1.50;;;16.80;96.40;;;17.45;50.00;97424.81;10421474;28;20221;-67
2023/10/22 13:55:45;;;;;;;3.20;1.48;;;16.70;95.90;;;17.46;51.40;97429.19;10421971;28;20230;-67
2023/10/22 14:00:49;;;;;;;2.92;1.50;;;16.70;96.70;;;17.55;51.35;97435.41;10416619;28;20273;-67
2023/10/22 14:05:53;;;;;;;2.60;1.40;;;16.70;97.40;;;17.30;50.99;97433.09;10420231;28;20240;-67
2023/10/22 14:10:58;;;;;;;4.68;1.60;;;16.40;96.80;;;17.24;53.03;97444.16;10419372;28;20229;-66
2023/10/22 14:16:05;;;;;;;2.92;1.70;;;16.30;98.10;;;17.09;53.95;97449.81;10420154;28;20231;-65
2023/10/22 14:21:09;;;;;;;2.33;1.70;;;16.20;99.30;;;17.13;53.77;97461.09;10417398;28;20225;-65
2023/10/22 14:26:14;;;;;;;3.70;1.63;;;16.20;98.80;;;17.10;53.71;97451.56;10420256;28;20225;-66
2023/10/22 14:31:19;;;;;;;3.35;1.40;;;16.20;99.00;;;17.33;51.40;97444.38;10426689;28;20233;-66
2023/10/22 14:36:22;;;;;;;4.10;1.83;;;16.50;97.60;;;17.34;51.36;97450.44;10428775;28;20234;-66
2023/10/22 14:41:28;;;;;;;3.38;1.50;;;16.40;97.30;;;17.29;50.91;97457.19;10427432;28;20233;-65
2023/10/22 14:46:32;;;;;;;2.35;1.58;;;16.50;96.70;;;17.14;51.80;97460.28;10421993;28;20754;-66
2023/10/22 14:51:35;;;;;;;3.38;1.38;;;16.30;97.10;;;17.24;51.64;97451.03;10419743;28;20233;-66
2023/10/22 14:56:39;;;;;;;1.95;1.10;;;16.30;97.20;;;16.97;51.77;97459.84;10422362;28;20221;-66
2023/10/22 15:01:43;;;;;;;2.33;1.55;;;16.20;97.30;;;16.94;52.43;97459.78;10416183;28;20728;-66
2023/10/22 15:06:46;;;;;;;3.15;1.58;;;16.10;97.90;;;16.96;52.69;97452.91;10422835;28;20239;-67
2023/10/22 15:11:50;;;;;;;2.28;1.50;;;16.10;97.80;;;16.95;52.85;97466.69;10426420;28;20252;-67
2023/10/22 15:16:53;;;;;;;3.53;1.83;;;16.00;98.10;;;16.80;54.29;97468.88;10425336;28;20278;-66
2023/10/22 15:21:56;;;;;;;1.95;1.42;;;15.90;99.40;;;16.66;53.94;97469.34;10428283;28;20233;-66
2023/10/22 15:27:01;;;;;;;2.90;1.50;;;15.80;98.90;;;16.38;56.83;97477.16;10426922;28;20251;-66
2023/10/22 15:32:05;;;;;;;3.50;1.80;;;15.50;99.90;;;16.12;58.99;97479.88;10429592;28;20228;-67
2023/10/22 15:37:08;;;;;;;3.22;1.70;;;15.20;99.90;;;15.89;60.18;97475.75;10427753;28;20404;-66
2023/10/22 15:42:12;;;;;;;3.13;1.77;;;15.00;99.90;;;15.69;62.78;97478.59;10426859;28;20229;-67
2023/10/22 15:47:16;;;;;;;3.50;2.05;;;14.80;99.90;;;15.48;64.62;97485.59;10434532;28;20229;-66
2023/10/22 15:52:19;;;;;;;3.70;2.05;;;14.60;99.90;;;15.28;66.98;97485.84;10432776;28;20229;-67
2023/10/22 15:57:23;;;;;;;1.95;1.52;;;14.40;99.90;;;15.05;66.77;97490.25;10437270;28;20237;-67
2023/10/22 16:02:26;;;;;;;3.95;1.80;;;14.10;99.90;;;14.83;69.14;97496.34;10431717;28;20221;-67
2023/10/22 16:07:30;;;;;;;3.67;1.80;;;13.90;99.90;;;14.55;70.78;97504.78;10436608;28;20247;-67
2023/10/22 16:12:35;;;;;;;3.92;2.25;;;13.60;99.90;;;14.34;72.91;97510.03;10434028;28;20239;-66
2023/10/22 16:17:40;;;;;;;3.28;2.15;;;13.40;99.90;;;14.09;74.43;97515.94;10428773;28;20221;-67
2023/10/22 16:22:43;;;;;;;4.45;2.38;;;13.20;99.90;;;13.82;77.72;97528.63;10431593;28;20228;-66
2023/10/22 16:27:48;;;;;;;5.70;4.25;;;12.90;99.90;;;13.54;79.37;97533.47;10432992;28;20229;-65
2023/10/22 16:32:52;;;;;;;5.65;3.78;;;12.50;99.90;;;13.49;79.00;97547.00;10432496;28;20231;-66
2023/10/22 16:37:55;;;;;;;8.25;4.65;;;12.50;99.90;;;13.18;79.64;97546.53;10433358;28;20634;-66
2023/10/22 16:43:00;;;;;;;5.65;3.42;;;12.30;99.90;;;13.12;79.48;97546.28;10430886;28;20225;-66
2023/10/22 16:48:03;;;;;;;3.75;2.50;;;12.20;99.90;;;12.99;81.68;97555.13;10423253;28;20621;-66
2023/10/22 16:53:07;;;;;;;4.18;2.80;;;12.10;99.90;;;12.86;81.24;97558.88;10429353;28;20232;-65
2023/10/22 16:58:11;;;;;;;3.50;2.15;;;12.00;99.90;;;12.67;83.65;97557.16;10426082;28;20221;-66
2023/10/22 17:03:14;;;;;;;3.95;2.15;;;11.80;99.90;;;12.59;84.50;97563.66;10431155;28;20239;-66
2023/10/22 17:08:17;;;;;;;2.55;2.30;;;11.60;99.90;;;12.36;86.42;97572.88;10438571;28;20225;-66
2023/10/22 17:13:22;;;;;;;3.75;2.55;;;11.40;99.90;;;12.23;86.99;97580.84;10435715;28;20225;-66
2023/10/22 17:18:26;;;;;;;2.70;2.05;;;11.30;99.90;;;12.06;86.84;97596.28;10432956;28;20239;-66
2023/10/22 17:23:48;;;;;;;5.38;2.50;;;11.20;99.90;;;11.98;87.87;97601.84;10432105;28;20684;-66
2023/10/22 17:28:53;;;;;;;12.63;11.32;;;11.10;99.90;;;11.82;88.89;97611.34;10432051;28;20579;-66
2023/10/22 17:33:56;;;;;;;5.70;4.90;;;11.00;99.90;;;11.75;88.99;97628.91;10434803;28;22183;-65
2023/10/22 17:39:08;;;;;;;10.88;9.88;;;10.80;99.90;;;11.69;88.88;97635.47;10432098;28;20328;-66
2023/10/22 17:44:13;;;;;;;8.85;7.65;;;10.70;99.90;;;11.55;90.81;97636.47;10432273;28;20594;-66
2023/10/22 17:49:16;;;;;;;6.78;6.03;;;10.70;99.90;;;11.46;91.35;97639.44;10434786;28;20225;-68
2023/10/22 17:54:24;;;;;;;9.15;8.18;;;10.50;99.90;;;11.31;92.31;97645.50;10432599;28;20228;-65
2023/10/22 17:59:28;;;;;;;8.30;7.32;;;10.40;99.90;;;11.16;92.89;97651.59;10434866;28;20574;-66
2023/10/22 18:04:31;;;;;;;7.10;5.68;;;10.30;99.90;;;11.10;92.89;97646.13;10423458;28;20616;-65
2023/10/22 18:09:34;;;;;;;5.07;4.10;;;10.20;99.90;;;11.04;92.38;97656.97;10427484;28;20595;-66
2023/10/22 18:14:39;;;;;;;4.55;2.30;;;10.20;99.90;;;10.93;92.61;97637.63;10428889;28;20268;-66
2023/10/22 18:19:42;;;;;;;3.60;2.10;;;10.10;99.90;;;10.87;92.75;97649.19;10428558;28;20712;-66
2023/10/22 18:24:54;;;;;;;6.22;4.30;;;10.00;99.90;;;10.64;94.09;97659.06;10421363;28;20329;-65
2023/10/22 18:29:58;;;;;;;5.15;4.05;;;9.90;99.90;;;10.55;95.35;97651.78;10415494;28;20270;-66
2023/10/22 18:35:02;;;;;;;4.00;3.38;;;9.80;99.90;;;10.44;96.05;97660.56;10418063;28;20607;-67
2023/10/22 18:40:07;;;;;;;4.43;3.28;;;9.70;99.90;;;10.45;95.10;97657.22;10419617;28;20233;-67
2023/10/22 18:45:12;;;;;;;4.35;3.00;;;9.70;99.90;;;10.21;96.81;97661.81;10426165;28;20830;-66
2023/10/22 18:50:15;;;;;;;3.92;3.00;;;9.50;99.90;;;10.18;96.09;97655.69;10436699;28;20301;-67
2023/10/22 18:55:18;;;;;;;4.60;4.05;;;9.50;99.90;;;10.08;97.99;97656.84;10430178;28;20232;-67
2023/10/22 19:00:23;;;;;;;5.60;4.53;;;9.40;99.90;;;10.03;98.46;97655.72;10424564;28;20396;-67
2023/10/22 19:05:28;;;;;;;6.68;3.80;;;9.40;99.90;;;9.90;98.77;97660.13;10429663;28;20240;-66
2023/10/22 19:10:31;;;;;;;3.67;2.97;;;9.30;99.90;;;9.98;97.86;97664.78;10425307;28;20267;-66
2023/10/22 19:15:36;;;;;;;4.75;2.95;;;9.30;99.90;;;9.99;97.76;97674.22;10424734;28;20290;-67
2023/10/22 19:20:40;;;;;;;4.68;3.17;;;9.30;99.90;;;10.02;97.65;97674.38;10426892;28;20278;-67
2023/10/22 19:25:43;;;;;;;3.67;3.10;;;9.40;99.90;;;10.12;96.93;97676.63;10425153;28;20228;-66
2023/10/22 19:30:47;;;;;;;4.47;3.20;;;9.50;99.90;;;10.09;97.66;97687.56;10424708;28;20699;-66
2023/10/22 19:35:50;;;;;;;5.63;2.80;;;9.40;99.90;;;10.11;97.79;97697.88;10428274;28;20229;-65
2023/10/22 19:40:53;;;;;;;5.68;3.60;;;9.40;99.90;;;9.91;98.24;97706.97;10420613;28;20228;-65
2023/10/22 19:45:59;;;;;;;6.78;3.75;;;9.30;99.90;;;9.98;98.61;97700.53;10425659;28;20363;-67
2023/10/22 19:51:04;;;;;;;5.05;3.75;;;9.30;99.90;;;10.05;99.45;97707.75;10425071;28;20229;-66
2023/10/22 19:56:14;;;;;;;9.82;5.00;;;9.40;99.90;;;9.99;98.84;97715.06;10422777;28;20316;-66
2023/10/22 20:01:21;;;;;;;8.48;5.68;;;9.30;99.90;;;9.98;98.55;97705.63;10420796;28;20236;-67
2023/10/22 20:06:28;;;;;;;6.60;4.82;;;9.30;99.90;;;9.95;98.51;97710.56;10432165;28;20217;-66
2023/10/22 20:11:31;;;;;;;6.75;4.55;;;9.20;99.90;;;10.02;98.72;97715.25;10442821;28;20229;-67
2023/10/22 20:16:36;;;;;;;5.38;4.60;;;9.30;99.90;;;9.99;97.87;97715.06;10429328;28;20727;-67
2023/10/22 20:21:39;;;;;;;7.30;5.20;;;9.30;99.90;;;9.97;98.94;97721.75;10428332;28;20228;-68
2023/10/22 20:26:42;;;;;;;6.28;4.97;;;9.30;99.90;;;9.97;98.89;97724.31;10427102;28;20691;-66
2023/10/22 20:31:47;;;;;;;8.23;4.65;;;9.30;99.90;;;9.95;99.12;97716.53;10418953;28;20229;-68
2023/10/22 20:36:50;;;;;;;4.72;4.30;;;9.30;99.90;;;9.98;99.77;97728.59;10422234;28;20608;-67
2023/10/22 20:41:53;;;;;;;5.45;4.30;;;9.20;99.90;;;9.88;99.11;97722.97;10424715;28;20349;-67
2023/10/22 20:46:58;;;;;;;5.25;4.30;;;9.00;99.90;;;9.79;100.00;97721.59;10423096;28;20225;-66
2023/10/22 20:52:01;;;;;;;5.80;4.70;;;9.00;99.90;;;9.76;99.63;97721.38;10425671;28;20240;-66
2023/10/22 20:57:05;;;;;;;3.75;3.50;;;9.00;99.90;;;9.68;99.76;97729.50;10421289;28;20223;-67
2023/10/22 21:02:10;;;;;;;4.80;4.07;;;8.90;99.90;;;9.63;100.00;97735.13;10421543;28;20233;-67
2023/10/22 21:07:13;;;;;;;5.75;4.10;;;8.80;99.90;;;9.63;100.00;97735.13;10429397;28;20668;-66
2023/10/22 21:12:16;;;;;;;4.38;3.92;;;8.90;99.90;;;9.64;100.00;97726.66;10423672;28;20239;-67